Corson, South Dakota
Current Conditions -  °F | °C
As of 8:56 PM on Sunday 28 Dec 2014 (Local Time) from KFSD Reporting Station
Overcast Overcast  
Wind Chill:   Ceiling: 1100
Heat Index: 19°   Visibility: 9mi
Dew Point: 14°   Wind: 13mph
Humidity: 81%   Direction: 50°NE
Pressure: 30.24"   Gusts: NA
Location:  43.6275°N, 96.5916°W
Report Text: KFSD 290256Z 05011KT 9SM OVC011 M07/M10 A3024 RMK AO2 SLP275 T10721100 51021
Loading
Personal Weather Stations






























Interactive Weather Map New forecast layout! Learn more

10-Day Weather Forecast

Advertisements
Track Severe Weather on mobile